sensor_id;sensor_type;location;lat;lon;timestamp;pressure;altitude;pressure_sealevel;temperature;humidity
54306;BME280;66145;45.188;5.712;2023-04-03T00:01:26;99341.06;;;20.56;44.54
54306;BME280;66145;45.188;5.712;2023-04-03T00:03:52;99376.63;;;20.78;44.47
54306;BME280;66145;45.188;5.712;2023-04-03T00:06:17;99410.41;;;20.96;44.66
54306;BME280;66145;45.188;5.712;2023-04-03T00:08:43;99396.84;;;20.91;44.50
54306;BME280;66145;45.188;5.712;2023-04-03T00:11:09;99373.91;;;20.78;44.52
54306;BME280;66145;45.188;5.712;2023-04-03T00:13:35;99404.59;;;20.98;44.77
54306;BME280;66145;45.188;5.712;2023-04-03T00:16:01;99375.81;;;20.87;44.51
54306;BME280;66145;45.188;5.712;2023-04-03T00:18:26;99400.88;;;21.03;44.61
54306;BME280;66145;45.188;5.712;2023-04-03T00:20:52;99406.22;;;21.08;44.46
54306;BME280;66145;45.188;5.712;2023-04-03T00:23:17;99405.38;;;21.07;44.39
54306;BME280;66145;45.188;5.712;2023-04-03T00:25:43;99382.09;;;21.05;44.54
54306;BME280;66145;45.188;5.712;2023-04-03T00:28:09;99396.81;;;21.09;44.66
54306;BME280;66145;45.188;5.712;2023-04-03T00:30:34;99394.06;;;21.09;44.48
54306;BME280;66145;45.188;5.712;2023-04-03T00:33:00;99363.84;;;20.91;44.41
54306;BME280;66145;45.188;5.712;2023-04-03T00:35:26;99364.03;;;20.86;44.72
54306;BME280;66145;45.188;5.712;2023-04-03T00:37:52;99361.59;;;20.85;44.67
54306;BME280;66145;45.188;5.712;2023-04-03T00:40:19;99380.50;;;21.04;44.74
54306;BME280;66145;45.188;5.712;2023-04-03T00:42:47;99382.91;;;21.05;44.72
54306;BME280;66145;45.188;5.712;2023-04-03T00:47:40;99303.56;;;20.60;44.60
54306;BME280;66145;45.188;5.712;2023-04-03T00:50:06;99379.50;;;21.08;44.63
54306;BME280;66145;45.188;5.712;2023-04-03T00:52:32;99385.81;;;21.18;44.47
54306;BME280;66145;45.188;5.712;2023-04-03T00:55:02;99378.38;;;21.09;44.43
54306;BME280;66145;45.188;5.712;2023-04-03T00:57:28;99370.13;;;21.01;44.63
54306;BME280;66145;45.188;5.712;2023-04-03T01:00:01;99332.81;;;20.82;44.34
54306;BME280;66145;45.188;5.712;2023-04-03T01:02:28;99375.97;;;21.08;44.73
54306;BME280;66145;45.188;5.712;2023-04-03T01:04:54;99385.00;;;21.08;44.51
54306;BME280;66145;45.188;5.712;2023-04-03T01:07:23;99360.78;;;20.93;44.56
54306;BME280;66145;45.188;5.712;2023-04-03T01:09:54;99381.59;;;21.11;44.68
54306;BME280;66145;45.188;5.712;2023-04-03T01:12:31;99362.72;;;21.01;44.64
54306;BME280;66145;45.188;5.712;2023-04-03T01:15:07;99370.91;;;21.10;44.81
54306;BME280;66145;45.188;5.712;2023-04-03T01:17:48;99371.09;;;21.14;44.58
54306;BME280;66145;45.188;5.712;2023-04-03T01:25:26;99335.69;;;20.94;44.50
54306;BME280;66145;45.188;5.712;2023-04-03T01:27:52;99363.81;;;21.09;44.73
54306;BME280;66145;45.188;5.712;2023-04-03T01:30:19;99358.31;;;21.09;44.67
54306;BME280;66145;45.188;5.712;2023-04-03T01:32:45;99361.22;;;21.12;44.50
54306;BME280;66145;45.188;5.712;2023-04-03T01:35:11;99350.06;;;21.09;44.57
54306;BME280;66145;45.188;5.712;2023-04-03T01:37:37;99334.38;;;21.01;44.53
54306;BME280;66145;45.188;5.712;2023-04-03T01:40:03;99311.94;;;20.90;44.60
54306;BME280;66145;45.188;5.712;2023-04-03T01:42:29;99359.56;;;21.20;44.41
54306;BME280;66145;45.188;5.712;2023-04-03T01:44:54;99353.44;;;21.23;44.64
54306;BME280;66145;45.188;5.712;2023-04-03T01:47:20;99350.00;;;21.26;44.39
54306;BME280;66145;45.188;5.712;2023-04-03T01:49:45;99321.59;;;21.05;44.51
54306;BME280;66145;45.188;5.712;2023-04-03T01:52:10;99352.94;;;21.21;44.52
54306;BME280;66145;45.188;5.712;2023-04-03T01:54:36;99357.44;;;21.26;44.38
54306;BME280;66145;45.188;5.712;2023-04-03T01:57:01;99350.38;;;21.16;44.61
54306;BME280;66145;45.188;5.712;2023-04-03T01:59:27;99319.19;;;20.94;44.40
54306;BME280;66145;45.188;5.712;2023-04-03T02:01:53;99352.31;;;21.16;44.48
54306;BME280;66145;45.188;5.712;2023-04-03T02:04:18;99325.16;;;21.05;44.66
54306;BME280;66145;45.188;5.712;2023-04-03T02:06:44;99350.97;;;21.22;44.45
54306;BME280;66145;45.188;5.712;2023-04-03T02:09:09;99312.06;;;21.02;44.60
54306;BME280;66145;45.188;5.712;2023-04-03T02:11:34;99334.84;;;21.11;44.47
54306;BME280;66145;45.188;5.712;2023-04-03T02:14:00;99293.34;;;20.87;44.72
54306;BME280;66145;45.188;5.712;2023-04-03T02:16:25;99332.41;;;21.10;44.86
54306;BME280;66145;45.188;5.712;2023-04-03T02:18:50;99314.00;;;21.02;44.58
54306;BME280;66145;45.188;5.712;2023-04-03T02:21:16;99326.13;;;21.01;44.47
54306;BME280;66145;45.188;5.712;2023-04-03T02:23:41;99336.31;;;21.09;44.62
54306;BME280;66145;45.188;5.712;2023-04-03T02:26:09;99325.81;;;21.02;44.71
54306;BME280;66145;45.188;5.712;2023-04-03T02:28:35;99318.06;;;20.95;44.53
54306;BME280;66145;45.188;5.712;2023-04-03T02:31:01;99341.13;;;21.12;44.72
54306;BME280;66145;45.188;5.712;2023-04-03T02:33:27;99338.72;;;21.10;44.62
54306;BME280;66145;45.188;5.712;2023-04-03T02:35:54;99327.25;;;21.08;44.84
54306;BME280;66145;45.188;5.712;2023-04-03T02:38:19;99347.31;;;21.09;44.70
54306;BME280;66145;45.188;5.712;2023-04-03T02:40:45;99311.13;;;20.89;44.90
54306;BME280;66145;45.188;5.712;2023-04-03T02:43:13;99324.22;;;20.92;44.82
54306;BME280;66145;45.188;5.712;2023-04-03T02:45:38;99347.16;;;21.05;44.87
54306;BME280;66145;45.188;5.712;2023-04-03T02:48:04;99344.25;;;21.02;45.16
54306;BME280;66145;45.188;5.712;2023-04-03T02:50:29;99317.59;;;20.93;44.78
54306;BME280;66145;45.188;5.712;2023-04-03T02:52:55;99333.41;;;21.05;45.01
54306;BME280;66145;45.188;5.712;2023-04-03T02:55:20;99290.78;;;20.81;44.74
54306;BME280;66145;45.188;5.712;2023-04-03T02:57:45;99262.16;;;20.65;44.99
54306;BME280;66145;45.188;5.712;2023-04-03T03:00:11;99315.00;;;20.97;44.88
54306;BME280;66145;45.188;5.712;2023-04-03T03:02:37;99323.50;;;21.13;44.79
54306;BME280;66145;45.188;5.712;2023-04-03T03:05:02;99302.88;;;20.98;44.91
54306;BME280;66145;45.188;5.712;2023-04-03T03:07:28;99325.47;;;21.12;44.97
54306;BME280;66145;45.188;5.712;2023-04-03T03:09:53;99310.16;;;20.94;45.03
54306;BME280;66145;45.188;5.712;2023-04-03T03:12:18;99286.06;;;20.82;45.03
54306;BME280;66145;45.188;5.712;2023-04-03T03:14:48;99319.81;;;21.09;44.71
54306;BME280;66145;45.188;5.712;2023-04-03T03:17:13;99318.66;;;21.10;44.92
54306;BME280;66145;45.188;5.712;2023-04-03T03:19:39;99292.00;;;21.02;44.60
54306;BME280;66145;45.188;5.712;2023-04-03T03:22:05;99300.41;;;21.05;44.71
54306;BME280;66145;45.188;5.712;2023-04-03T03:24:30;99317.84;;;21.18;44.35
54306;BME280;66145;45.188;5.712;2023-04-03T03:26:55;99321.22;;;21.24;44.30
54306;BME280;66145;45.188;5.712;2023-04-03T03:29:21;99322.47;;;21.26;44.53
54306;BME280;66145;45.188;5.712;2023-04-03T03:31:46;99317.19;;;21.21;44.49
54306;BME280;66145;45.188;5.712;2023-04-03T03:34:11;99270.19;;;20.96;44.62
54306;BME280;66145;45.188;5.712;2023-04-03T03:36:37;99280.88;;;20.98;44.59
54306;BME280;66145;45.188;5.712;2023-04-03T03:39:02;99321.22;;;21.24;44.53
54306;BME280;66145;45.188;5.712;2023-04-03T03:41:28;99309.28;;;21.11;44.70
54306;BME280;66145;45.188;5.712;2023-04-03T03:43:53;99316.09;;;21.14;44.89
54306;BME280;66145;45.188;5.712;2023-04-03T03:46:18;99314.28;;;21.18;44.90
54306;BME280;66145;45.188;5.712;2023-04-03T03:48:44;99305.59;;;21.07;44.77
54306;BME280;66145;45.188;5.712;2023-04-03T03:51:09;99318.16;;;21.25;44.90
54306;BME280;66145;45.188;5.712;2023-04-03T03:53:35;99283.41;;;21.03;44.61
54306;BME280;66145;45.188;5.712;2023-04-03T03:56:00;99301.19;;;21.15;44.69
54306;BME280;66145;45.188;5.712;2023-04-03T03:58:26;99324.78;;;21.24;44.71
54306;BME280;66145;45.188;5.712;2023-04-03T04:00:51;99309.25;;;21.20;44.66
54306;BME280;66145;45.188;5.712;2023-04-03T04:03:16;99303.47;;;21.12;44.82
54306;BME280;66145;45.188;5.712;2023-04-03T04:05:43;99329.28;;;21.29;44.72
54306;BME280;66145;45.188;5.712;2023-04-03T04:08:08;99302.16;;;21.10;44.90
54306;BME280;66145;45.188;5.712;2023-04-03T04:10:34;99318.63;;;21.19;44.86
54306;BME280;66145;45.188;5.712;2023-04-03T04:13:00;99309.94;;;21.17;44.93
54306;BME280;66145;45.188;5.712;2023-04-03T04:15:25;99312.50;;;21.13;44.99
54306;BME280;66145;45.188;5.712;2023-04-03T04:17:52;99269.25;;;20.92;44.84
54306;BME280;66145;45.188;5.712;2023-04-03T04:20:18;99322.34;;;21.23;44.74
54306;BME280;66145;45.188;5.712;2023-04-03T04:22:43;99323.78;;;21.29;44.71
54306;BME280;66145;45.188;5.712;2023-04-03T04:25:09;99299.88;;;21.12;44.61
54306;BME280;66145;45.188;5.712;2023-04-03T04:27:35;99277.47;;;21.01;45.02
54306;BME280;66145;45.188;5.712;2023-04-03T04:30:00;99315.72;;;21.24;44.74
54306;BME280;66145;45.188;5.712;2023-04-03T04:32:26;99314.09;;;21.23;44.76
54306;BME280;66145;45.188;5.712;2023-04-03T04:34:51;99287.97;;;21.08;44.84
54306;BME280;66145;45.188;5.712;2023-04-03T04:37:16;99274.88;;;20.96;44.85
54306;BME280;66145;45.188;5.712;2023-04-03T04:39:42;99320.25;;;21.20;45.00
54306;BME280;66145;45.188;5.712;2023-04-03T04:42:07;99289.88;;;21.07;44.85
54306;BME280;66145;45.188;5.712;2023-04-03T04:44:38;99323.97;;;21.24;44.85
54306;BME280;66145;45.188;5.712;2023-04-03T04:47:03;99298.44;;;21.15;44.69
54306;BME280;66145;45.188;5.712;2023-04-03T04:49:28;99317.63;;;21.32;44.62
54306;BME280;66145;45.188;5.712;2023-04-03T04:51:54;99236.28;;;20.84;44.60
54306;BME280;66145;45.188;5.712;2023-04-03T04:54:19;99280.81;;;21.16;44.68
54306;BME280;66145;45.188;5.712;2023-04-03T04:56:44;99288.06;;;21.20;44.66
54306;BME280;66145;45.188;5.712;2023-04-03T04:59:10;99313.75;;;21.33;44.57
54306;BME280;66145;45.188;5.712;2023-04-03T05:01:35;99283.56;;;21.16;44.62
54306;BME280;66145;45.188;5.712;2023-04-03T05:04:00;99283.88;;;21.14;44.67
54306;BME280;66145;45.188;5.712;2023-04-03T05:06:26;99270.63;;;21.07;44.70
54306;BME280;66145;45.188;5.712;2023-04-03T05:08:51;99255.59;;;21.05;44.59
54306;BME280;66145;45.188;5.712;2023-04-03T05:11:16;99297.91;;;21.30;45.16
54306;BME280;66145;45.188;5.712;2023-04-03T05:13:42;99276.78;;;21.04;45.05
54306;BME280;66145;45.188;5.712;2023-04-03T05:16:07;99303.31;;;21.09;45.02
54306;BME280;66145;45.188;5.712;2023-04-03T05:18:33;99302.16;;;21.10;45.09
54306;BME280;66145;45.188;5.712;2023-04-03T05:20:58;99291.84;;;21.07;44.61
54306;BME280;66145;45.188;5.712;2023-04-03T05:23:24;99277.94;;;20.94;44.52
54306;BME280;66145;45.188;5.712;2023-04-03T05:25:49;99294.91;;;21.05;44.64
54306;BME280;66145;45.188;5.712;2023-04-03T05:28:15;99306.53;;;21.11;44.86
54306;BME280;66145;45.188;5.712;2023-04-03T05:30:40;99286.53;;;20.93;44.90
54306;BME280;66145;45.188;5.712;2023-04-03T05:33:06;99289.63;;;20.91;44.99
54306;BME280;66145;45.188;5.712;2023-04-03T05:35:31;99230.34;;;20.55;44.90
54306;BME280;66145;45.188;5.712;2023-04-03T05:37:57;99284.91;;;20.92;45.01
54306;BME280;66145;45.188;5.712;2023-04-03T05:40:22;99283.78;;;20.93;45.05
54306;BME280;66145;45.188;5.712;2023-04-03T05:42:48;99309.13;;;21.07;44.98
54306;BME280;66145;45.188;5.712;2023-04-03T05:45:13;99273.78;;;20.88;44.85
54306;BME280;66145;45.188;5.712;2023-04-03T05:47:39;99304.47;;;21.08;45.01
54306;BME280;66145;45.188;5.712;2023-04-03T05:50:05;99273.63;;;20.93;45.08
54306;BME280;66145;45.188;5.712;2023-04-03T05:52:34;99225.97;;;20.54;45.16
54306;BME280;66145;45.188;5.712;2023-04-03T05:55:01;99282.50;;;20.90;45.14
54306;BME280;66145;45.188;5.712;2023-04-03T05:57:26;99312.38;;;21.01;45.11
54306;BME280;66145;45.188;5.712;2023-04-03T05:59:51;99294.00;;;20.75;45.01
54306;BME280;66145;45.188;5.712;2023-04-03T06:02:20;99264.91;;;20.74;44.56
54306;BME280;66145;45.188;5.712;2023-04-03T06:04:45;99285.75;;;20.92;44.58
54306;BME280;66145;45.188;5.712;2023-04-03T06:07:15;99303.50;;;21.04;44.59
54306;BME280;66145;45.188;5.712;2023-04-03T06:09:41;99314.16;;;21.05;44.61
54306;BME280;66145;45.188;5.712;2023-04-03T06:12:06;99302.69;;;20.94;44.60
54306;BME280;66145;45.188;5.712;2023-04-03T06:14:32;99314.16;;;21.05;44.80
54306;BME280;66145;45.188;5.712;2023-04-03T06:16:57;99313.84;;;21.07;44.45
54306;BME280;66145;45.188;5.712;2023-04-03T06:19:23;99315.88;;;21.19;44.64
54306;BME280;66145;45.188;5.712;2023-04-03T06:21:48;99324.78;;;21.24;44.72
54306;BME280;66145;45.188;5.712;2023-04-03T06:24:16;99324.28;;;21.31;44.38
54306;BME280;66145;45.188;5.712;2023-04-03T06:26:42;99318.28;;;21.29;44.45
54306;BME280;66145;45.188;5.712;2023-04-03T06:29:07;99275.03;;;21.00;44.34
54306;BME280;66145;45.188;5.712;2023-04-03T06:31:33;99310.59;;;21.05;44.71
54306;BME280;66145;45.188;5.712;2023-04-03T06:33:58;99320.44;;;21.15;44.55
54306;BME280;66145;45.188;5.712;2023-04-03T06:36:23;99329.34;;;21.11;44.90
54306;BME280;66145;45.188;5.712;2023-04-03T06:38:49;99309.13;;;21.07;44.93
54306;BME280;66145;45.188;5.712;2023-04-03T06:41:15;99296.25;;;20.90;44.91
54306;BME280;66145;45.188;5.712;2023-04-03T06:43:42;99279.59;;;20.78;45.02
54306;BME280;66145;45.188;5.712;2023-04-03T06:46:13;99323.25;;;20.97;44.69
54306;BME280;66145;45.188;5.712;2023-04-03T06:48:39;99322.94;;;20.90;45.05
54306;BME280;66145;45.188;5.712;2023-04-03T06:51:04;99297.25;;;20.68;45.34
54306;BME280;66145;45.188;5.712;2023-04-03T06:53:30;99338.78;;;20.84;45.42
54306;BME280;66145;45.188;5.712;2023-04-03T06:55:56;99297.25;;;20.68;45.29
54306;BME280;66145;45.188;5.712;2023-04-03T06:58:21;99263.97;;;20.43;44.93
54306;BME280;66145;45.188;5.712;2023-04-03T07:00:47;99308.41;;;20.72;44.86
54306;BME280;66145;45.188;5.712;2023-04-03T07:03:12;99250.56;;;20.42;44.96
54306;BME280;66145;45.188;5.712;2023-04-03T07:05:38;99332.66;;;20.87;44.89
54306;BME280;66145;45.188;5.712;2023-04-03T07:08:03;99337.00;;;20.88;45.08
54306;BME280;66145;45.188;5.712;2023-04-03T07:10:28;99332.94;;;20.86;45.18
54306;BME280;66145;45.188;5.712;2023-04-03T07:12:54;99325.03;;;20.84;45.10
54306;BME280;66145;45.188;5.712;2023-04-03T07:15:19;99334.44;;;20.83;45.17
54306;BME280;66145;45.188;5.712;2023-04-03T07:17:44;99319.56;;;20.75;45.26
54306;BME280;66145;45.188;5.712;2023-04-03T07:20:11;99316.50;;;20.77;44.93
54306;BME280;66145;45.188;5.712;2023-04-03T07:22:36;99299.69;;;20.61;45.08
54306;BME280;66145;45.188;5.712;2023-04-03T07:25:02;99311.00;;;20.50;45.35
54306;BME280;66145;45.188;5.712;2023-04-03T07:27:28;99292.91;;;20.41;45.49
54306;BME280;66145;45.188;5.712;2023-04-03T07:29:53;99334.13;;;20.58;45.30
54306;BME280;66145;45.188;5.712;2023-04-03T07:32:19;99276.75;;;20.21;45.16
54306;BME280;66145;45.188;5.712;2023-04-03T07:34:44;99333.78;;;20.60;44.89
54306;BME280;66145;45.188;5.712;2023-04-03T07:37:10;99334.44;;;20.57;44.92
54306;BME280;66145;45.188;5.712;2023-04-03T07:39:35;99336.53;;;20.60;45.02
54306;BME280;66145;45.188;5.712;2023-04-03T07:42:01;99330.53;;;20.58;45.03
54306;BME280;66145;45.188;5.712;2023-04-03T07:44:27;99306.31;;;20.42;45.02
54306;BME280;66145;45.188;5.712;2023-04-03T07:46:53;99298.72;;;20.39;44.91
54306;BME280;66145;45.188;5.712;2023-04-03T07:49:18;99306.81;;;20.44;44.83
54306;BME280;66145;45.188;5.712;2023-04-03T07:51:44;99331.84;;;20.60;44.52
54306;BME280;66145;45.188;5.712;2023-04-03T07:54:10;99329.41;;;20.59;44.67
54306;BME280;66145;45.188;5.712;2023-04-03T07:56:36;99310.53;;;20.48;44.59
54306;BME280;66145;45.188;5.712;2023-04-03T07:59:01;99326.38;;;20.60;44.68
54306;BME280;66145;45.188;5.712;2023-04-03T08:01:27;99326.19;;;20.57;44.80
54306;BME280;66145;45.188;5.712;2023-04-03T08:03:52;99325.06;;;20.58;44.86
54306;BME280;66145;45.188;5.712;2023-04-03T08:06:18;99322.00;;;20.50;44.58
54306;BME280;66145;45.188;5.712;2023-04-03T08:08:43;99255.59;;;20.04;44.99
54306;BME280;66145;45.188;5.712;2023-04-03T08:11:09;99330.41;;;20.54;44.51
54306;BME280;66145;45.188;5.712;2023-04-03T08:13:36;99327.81;;;20.49;44.50
54306;BME280;66145;45.188;5.712;2023-04-03T08:16:12;99331.03;;;20.51;44.63
54306;BME280;66145;45.188;5.712;2023-04-03T08:18:38;99304.69;;;20.32;44.49
54306;BME280;66145;45.188;5.712;2023-04-03T08:21:13;99296.66;;;20.36;44.52
54306;BME280;66145;45.188;5.712;2023-04-03T08:23:40;99256.44;;;20.05;44.42
54306;BME280;66145;45.188;5.712;2023-04-03T08:26:12;99292.44;;;20.21;44.37
54306;BME280;66145;45.188;5.712;2023-04-03T08:28:38;99323.28;;;20.44;44.66
54306;BME280;66145;45.188;5.712;2023-04-03T08:31:05;99339.13;;;20.47;44.61
54306;BME280;66145;45.188;5.712;2023-04-03T08:33:32;99319.41;;;20.28;44.76
54306;BME280;66145;45.188;5.712;2023-04-03T08:35:57;99311.00;;;20.24;44.66
54306;BME280;66145;45.188;5.712;2023-04-03T08:38:23;99338.97;;;20.35;44.68
54306;BME280;66145;45.188;5.712;2023-04-03T08:41:00;99330.88;;;20.30;44.64
54306;BME280;66145;45.188;5.712;2023-04-03T08:43:54;99343.34;;;20.36;44.74
54306;BME280;66145;45.188;5.712;2023-04-03T08:46:26;99341.88;;;20.30;45.09
54306;BME280;66145;45.188;5.712;2023-04-03T08:48:58;99291.13;;;20.01;44.97
54306;BME280;66145;45.188;5.712;2023-04-03T08:51:25;99340.25;;;20.29;44.78
54306;BME280;66145;45.188;5.712;2023-04-03T08:54:03;99306.78;;;20.09;45.02
54306;BME280;66145;45.188;5.712;2023-04-03T08:56:30;99278.03;;;19.89;45.07
54306;BME280;66145;45.188;5.712;2023-04-03T08:59:12;99306.47;;;20.02;45.07
54306;BME280;66145;45.188;5.712;2023-04-03T09:01:40;99259.25;;;19.73;45.03
54306;BME280;66145;45.188;5.712;2023-04-03T09:04:13;99336.03;;;20.23;44.71
54306;BME280;66145;45.188;5.712;2023-04-03T09:06:39;99326.03;;;20.18;44.77
54306;BME280;66145;45.188;5.712;2023-04-03T09:09:29;99321.84;;;20.20;44.98
54306;BME280;66145;45.188;5.712;2023-04-03T09:20:46;99312.63;;;20.16;45.04
54306;BME280;66145;45.188;5.712;2023-04-03T09:23:19;99313.59;;;20.12;45.39
54306;BME280;66145;45.188;5.712;2023-04-03T09:25:47;99279.28;;;19.83;45.53
54306;BME280;66145;45.188;5.712;2023-04-03T09:28:15;99304.69;;;19.88;45.58
54306;BME280;66145;45.188;5.712;2023-04-03T09:30:40;99302.84;;;19.84;45.74
54306;BME280;66145;45.188;5.712;2023-04-03T09:33:06;99308.75;;;20.00;45.57
54306;BME280;66145;45.188;5.712;2023-04-03T09:35:34;99276.56;;;19.91;45.14
54306;BME280;66145;45.188;5.712;2023-04-03T09:38:02;99307.63;;;20.10;45.08
54306;BME280;66145;45.188;5.712;2023-04-03T09:40:40;99302.44;;;20.08;44.86
54306;BME280;66145;45.188;5.712;2023-04-03T09:43:23;99304.38;;;20.08;44.84
54306;BME280;66145;45.188;5.712;2023-04-03T09:45:50;99267.41;;;19.87;45.19
54306;BME280;66145;45.188;5.712;2023-04-03T09:48:22;99284.03;;;20.00;45.11
54306;BME280;66145;45.188;5.712;2023-04-03T09:55:56;99272.97;;;19.65;45.47
54306;BME280;66145;45.188;5.712;2023-04-03T09:58:25;99232.56;;;19.39;45.72
54306;BME280;66145;45.188;5.712;2023-04-03T10:00:57;99287.72;;;19.86;45.39
54306;BME280;66145;45.188;5.712;2023-04-03T10:03:29;99287.75;;;19.95;45.05
54306;BME280;66145;45.188;5.712;2023-04-03T10:05:55;99285.16;;;19.99;44.98
54306;BME280;66145;45.188;5.712;2023-04-03T10:13:31;99277.56;;;19.96;45.36
54306;BME280;66145;45.188;5.712;2023-04-03T10:16:07;99273.19;;;19.95;45.18
54306;BME280;66145;45.188;5.712;2023-04-03T10:18:48;99270.94;;;19.97;45.48
54306;BME280;66145;45.188;5.712;2023-04-03T10:21:38;99278.38;;;19.87;45.56
54306;BME280;66145;45.188;5.712;2023-04-03T10:24:11;99265.09;;;19.72;45.59
54306;BME280;66145;45.188;5.712;2023-04-03T10:29:36;99201.28;;;19.40;45.83
54306;BME280;66145;45.188;5.712;2023-04-03T10:35:20;99264.31;;;19.89;45.33
54306;BME280;66145;45.188;5.712;2023-04-03T10:40:55;99257.69;;;19.90;45.24
54306;BME280;66145;45.188;5.712;2023-04-03T10:43:33;99214.56;;;19.73;45.14
54306;BME280;66145;45.188;5.712;2023-04-03T10:46:15;99259.94;;;19.88;45.22
54306;BME280;66145;45.188;5.712;2023-04-03T10:56:48;99235.25;;;19.88;45.22
54306;BME280;66145;45.188;5.712;2023-04-03T10:59:21;99207.47;;;19.72;45.15
54306;BME280;66145;45.188;5.712;2023-04-03T11:01:54;99211.50;;;19.83;45.07
54306;BME280;66145;45.188;5.712;2023-04-03T11:04:23;99212.81;;;19.95;45.07
54306;BME280;66145;45.188;5.712;2023-04-03T11:07:13;99145.78;;;19.60;44.91
54306;BME280;66145;45.188;5.712;2023-04-03T11:09:41;99158.84;;;19.72;44.76
54306;BME280;66145;45.188;5.712;2023-04-03T11:14:38;99201.50;;;20.05;44.78
54306;BME280;66145;45.188;5.712;2023-04-03T11:17:26;99205.06;;;20.05;44.78
54306;BME280;66145;45.188;5.712;2023-04-03T11:20:16;99201.03;;;20.03;44.95
54306;BME280;66145;45.188;5.712;2023-04-03T11:22:47;99190.53;;;19.96;45.01
54306;BME280;66145;45.188;5.712;2023-04-03T11:25:19;99176.00;;;19.96;45.29
54306;BME280;66145;45.188;5.712;2023-04-03T11:28:01;99157.59;;;19.87;45.12
54306;BME280;66145;45.188;5.712;2023-04-03T11:30:39;99149.97;;;19.84;45.18
54306;BME280;66145;45.188;5.712;2023-04-03T11:35:47;99167.41;;;20.06;45.08
54306;BME280;66145;45.188;5.712;2023-04-03T11:38:22;99165.16;;;20.08;45.03
54306;BME280;66145;45.188;5.712;2023-04-03T11:40:49;99155.97;;;20.04;45.13
54306;BME280;66145;45.188;5.712;2023-04-03T11:43:25;99136.09;;;19.98;45.10
54306;BME280;66145;45.188;5.712;2023-04-03T11:46:01;99167.88;;;20.17;44.72
54306;BME280;66145;45.188;5.712;2023-04-03T11:50:54;99128.69;;;19.99;45.02
54306;BME280;66145;45.188;5.712;2023-04-03T11:55:55;99151.41;;;20.08;45.28
54306;BME280;66145;45.188;5.712;2023-04-03T12:16:03;99094.13;;;19.98;45.31
54306;BME280;66145;45.188;5.712;2023-04-03T12:21:12;99093.50;;;19.92;45.20
54306;BME280;66145;45.188;5.712;2023-04-03T12:26:47;99020.41;;;19.52;45.39
54306;BME280;66145;45.188;5.712;2023-04-03T12:48:22;99087.31;;;20.13;44.82
54306;BME280;66145;45.188;5.712;2023-04-03T12:50:50;99060.56;;;19.92;45.02
54306;BME280;66145;45.188;5.712;2023-04-03T12:53:21;99040.06;;;19.81;45.04
54306;BME280;66145;45.188;5.712;2023-04-03T12:55:54;99062.16;;;20.02;45.09
54306;BME280;66145;45.188;5.712;2023-04-03T12:58:25;99081.66;;;20.09;45.24
54306;BME280;66145;45.188;5.712;2023-04-03T13:01:24;99084.03;;;20.28;44.86
54306;BME280;66145;45.188;5.712;2023-04-03T13:03:53;99057.72;;;20.18;44.82
54306;BME280;66145;45.188;5.712;2023-04-03T13:06:26;99086.06;;;20.40;44.86
54306;BME280;66145;45.188;5.712;2023-04-03T13:08:54;99093.19;;;20.41;44.80
54306;BME280;66145;45.188;5.712;2023-04-03T13:11:24;99080.44;;;20.36;44.90
54306;BME280;66145;45.188;5.712;2023-04-03T13:13:58;99063.50;;;20.26;44.88
54306;BME280;66145;45.188;5.712;2023-04-03T13:16:24;99049.63;;;20.22;44.80
54306;BME280;66145;45.188;5.712;2023-04-03T13:18:54;99079.78;;;20.40;44.87
54306;BME280;66145;45.188;5.712;2023-04-03T13:21:25;99070.44;;;20.32;44.89
54306;BME280;66145;45.188;5.712;2023-04-03T13:23:55;99060.41;;;20.36;44.75
54306;BME280;66145;45.188;5.712;2023-04-03T13:26:23;99063.94;;;20.36;44.87
54306;BME280;66145;45.188;5.712;2023-04-03T13:28:49;99063.44;;;20.43;44.67
54306;BME280;66145;45.188;5.712;2023-04-03T13:31:26;99052.28;;;20.48;44.85
54306;BME280;66145;45.188;5.712;2023-04-03T13:34:19;99076.91;;;20.66;44.88
54306;BME280;66145;45.188;5.712;2023-04-03T13:36:56;99075.47;;;20.60;44.82
54306;BME280;66145;45.188;5.712;2023-04-03T13:39:25;99039.97;;;20.46;44.83
54306;BME280;66145;45.188;5.712;2023-04-03T13:41:53;99055.34;;;20.47;44.87
54306;BME280;66145;45.188;5.712;2023-04-03T13:46:48;99052.75;;;20.50;44.63
54306;BME280;66145;45.188;5.712;2023-04-03T13:49:22;99065.44;;;20.64;45.12
54306;BME280;66145;45.188;5.712;2023-04-03T13:51:52;99046.53;;;20.62;45.02
54306;BME280;66145;45.188;5.712;2023-04-03T13:54:24;99050.34;;;20.70;44.95
54306;BME280;66145;45.188;5.712;2023-04-03T13:56:57;99038.16;;;20.59;44.59
54306;BME280;66145;45.188;5.712;2023-04-03T13:59:33;99067.00;;;20.74;44.97
54306;BME280;66145;45.188;5.712;2023-04-03T14:02:13;99065.56;;;20.76;44.78
54306;BME280;66145;45.188;5.712;2023-04-03T14:04:46;99061.69;;;20.77;45.01
54306;BME280;66145;45.188;5.712;2023-04-03T14:07:14;99040.09;;;20.58;44.98
54306;BME280;66145;45.188;5.712;2023-04-03T14:09:41;99056.84;;;20.65;45.02
54306;BME280;66145;45.188;5.712;2023-04-03T14:12:13;99057.81;;;20.70;44.98
54306;BME280;66145;45.188;5.712;2023-04-03T14:14:40;99048.13;;;20.63;45.11
54306;BME280;66145;45.188;5.712;2023-04-03T14:17:18;99060.28;;;20.24;45.67
54306;BME280;66145;45.188;5.712;2023-04-03T14:19:44;99066.88;;;20.31;45.52
54306;BME280;66145;45.188;5.712;2023-04-03T14:22:19;99059.50;;;20.53;44.74
54306;BME280;66145;45.188;5.712;2023-04-03T14:24:47;99031.44;;;20.47;44.31
54306;BME280;66145;45.188;5.712;2023-04-03T14:27:57;99063.66;;;20.68;44.21
54306;BME280;66145;45.188;5.712;2023-04-03T14:30:06;99034.13;;;20.56;44.20
54306;BME280;66145;45.188;5.712;2023-04-03T14:32:33;99045.03;;;20.74;44.16
54306;BME280;66145;45.188;5.712;2023-04-03T14:34:59;99051.72;;;20.64;44.10
54306;BME280;66145;45.188;5.712;2023-04-03T14:37:27;99049.28;;;20.62;44.50
54306;BME280;66145;45.188;5.712;2023-04-03T14:39:55;99037.19;;;20.55;44.20
54306;BME280;66145;45.188;5.712;2023-04-03T14:42:25;99013.69;;;20.45;44.25
54306;BME280;66145;45.188;5.712;2023-04-03T14:44:51;99008.97;;;20.45;44.17